Time,TemperatureF,DewpointF,PressureIn,WindDirection,WindDirectionDegrees,WindSpeedMPH,WindSpeedGustMPH,Humidity,HourlyPrecipIn,Conditions,Clouds,dailyrainin,SoftwareType,DateUTC
2013-03-19 00:00:00,45.5,24.9,29.08,West,270,0.0,0.0,44,0.00,,---,0.00,VWS V14.01,2013-03-19 05:00:00,
2013-03-19 00:30:00,44.7,24.1,29.10,West,270,0.0,0.0,44,0.00,,---,0.00,VWS V14.01,2013-03-19 05:30:00,
2013-03-19 01:00:00,43.9,22.9,29.10,West,270,0.0,0.0,43,0.00,,---,0.00,VWS V14.01,2013-03-19 06:00:00,
2013-03-19 01:30:00,43.0,22.0,29.11,West,270,0.0,0.0,43,0.00,,---,0.00,VWS V14.01,2013-03-19 06:30:00,
2013-03-19 02:00:00,42.2,21.3,29.12,West,270,0.0,0.0,43,0.00,,---,0.00,VWS V14.01,2013-03-19 07:00:00,
2013-03-19 02:30:00,41.3,20.5,29.15,West,270,0.0,0.0,43,0.00,,---,0.00,VWS V14.01,2013-03-19 07:30:00,
2013-03-19 03:00:00,40.5,19.8,29.16,West,270,0.0,0.0,43,0.00,,---,0.00,VWS V14.01,2013-03-19 08:00:00,
2013-03-19 03:30:00,39.7,19.0,29.16,West,270,0.0,0.0,43,0.00,,---,0.00,VWS V14.01,2013-03-19 08:30:00,
2013-03-19 04:00:00,38.9,17.8,29.15,West,270,0.0,0.0,42,0.00,,---,0.00,VWS V14.01,2013-03-19 09:00:00,
2013-03-19 04:30:00,38.2,17.1,29.16,West,270,0.0,0.0,42,0.00,,---,0.00,VWS V14.01,2013-03-19 09:30:00,
2013-03-19 05:00:00,37.4,16.4,29.16,West,270,0.0,0.0,42,0.00,,---,0.00,VWS V14.01,2013-03-19 10:00:00,
2013-03-19 05:30:00,36.7,15.8,29.16,West,270,0.0,0.0,42,0.00,,---,0.00,VWS V14.01,2013-03-19 10:30:00,
2013-03-19 06:00:00,36.0,15.1,29.18,West,270,0.0,0.0,42,0.00,,---,0.00,VWS V14.01,2013-03-19 11:00:00,
2013-03-19 06:30:00,35.3,14.5,29.19,West,270,0.0,0.0,42,0.00,,---,0.00,VWS V14.01,2013-03-19 11:30:00,
2013-03-19 07:00:00,34.7,14.0,29.20,West,270,0.0,0.0,42,0.00,,---,0.00,VWS V14.01,2013-03-19 12:00:00,
2013-03-19 07:30:00,34.0,13.3,29.20,West,270,0.0,0.0,42,0.00,,---,0.00,VWS V14.01,2013-03-19 12:30:00,
2013-03-19 08:00:00,33.4,12.8,29.22,West,270,0.0,0.0,42,0.00,,---,0.00,VWS V14.01,2013-03-19 13:00:00,
2013-03-19 08:30:00,32.8,12.2,29.23,West,270,0.0,0.0,42,0.00,,---,0.00,VWS V14.01,2013-03-19 13:30:00,
2013-03-19 09:00:00,32.3,11.8,29.25,West,270,0.0,0.0,42,0.00,,---,0.00,VWS V14.01,2013-03-19 14:00:00,
2013-03-19 09:30:00,31.8,11.3,29.26,West,270,0.0,0.0,42,0.00,,---,0.00,VWS V14.01,2013-03-19 14:30:00,
2013-03-19 10:00:00,31.5,11.1,29.27,West,270,0.0,0.0,42,0.00,,---,0.00,VWS V14.01,2013-03-19 15:00:00,
2013-03-19 10:30:00,31.4,11.0,29.27,West,270,0.0,0.0,42,0.00,,---,0.00,VWS V14.01,2013-03-19 15:30:00,
2013-03-19 11:00:00,31.6,11.2,29.29,West,270,0.0,0.0,42,0.00,,---,0.00,VWS V14.01,2013-03-19 16:00:00,
2013-03-19 11:30:00,31.7,11.2,29.29,West,270,0.0,0.0,42,0.00,,---,0.00,VWS V14.01,2013-03-19 16:30:00,
2013-03-19 12:00:00,31.9,11.4,29.30,West,270,0.0,0.0,42,0.00,,---,0.00,VWS V14.01,2013-03-19 17:00:00,
2013-03-19 12:30:00,32.1,11.6,29.30,West,270,0.0,0.0,42,0.00,,---,0.00,VWS V14.01,2013-03-19 17:30:00,
2013-03-19 13:00:00,32.4,12.4,29.30,West,270,0.0,0.0,43,0.00,,---,0.00,VWS V14.01,2013-03-19 18:00:00,
2013-03-19 13:30:00,41.9,40.6,29.30,NE,45,0.0,23.0,95,0.02,,---,0.02,VWS V14.01,2013-03-19 18:30:00,
2013-03-19 14:00:00,37.0,34.6,29.29,ESE,112,0.0,1.0,91,0.06,,---,0.06,VWS V14.01,2013-03-19 19:00:00,
2013-03-19 14:30:00,28.7,25.9,29.28,West,270,2.0,9.0,89,0.08,,---,0.08,VWS V14.01,2013-03-19 19:30:00,
2013-03-19 15:00:00,32.7,17.0,30.26,West,270,5.0,11.0,52,0.06,,---,0.08,VWS V14.01,2013-03-19 20:00:00,
2013-03-19 15:30:00,34.5,17.3,30.25,West,270,3.0,10.0,49,0.02,,---,0.08,VWS V14.01,2013-03-19 20:30:00,
2013-03-19 16:00:00,35.5,16.8,30.24,WNW,292,4.0,9.0,46,0.00,,---,0.08,VWS V14.01,2013-03-19 21:00:00,
2013-03-19 16:30:00,36.9,17.6,30.23,West,270,2.0,9.0,45,0.00,,---,0.08,VWS V14.01,2013-03-19 21:30:00,
2013-03-19 17:00:00,37.4,18.0,30.24,West,270,2.0,10.0,45,0.00,,---,0.08,VWS V14.01,2013-03-19 22:00:00,
2013-03-19 17:30:00,37.2,18.8,30.24,NW,315,3.0,9.0,47,0.00,,---,0.08,VWS V14.01,2013-03-19 22:30:00,
2013-03-19 18:00:00,36.8,19.0,30.23,WNW,292,3.0,8.0,48,0.00,,---,0.08,VWS V14.01,2013-03-19 23:00:00,
2013-03-19 18:30:00,36.2,18.9,30.23,NW,315,2.0,6.0,49,0.00,,---,0.08,VWS V14.01,2013-03-19 23:30:00,
2013-03-19 19:00:00,34.5,19.1,30.24,NW,315,2.0,6.0,53,0.00,,---,0.08,VWS V14.01,2013-03-20 00:00:00,
2013-03-19 19:30:00,32.6,18.7,30.24,NNW,338,2.0,8.0,56,0.00,,---,0.08,VWS V14.01,2013-03-20 00:30:00,
2013-03-19 20:00:00,31.0,18.8,30.25,NW,315,0.0,2.0,60,0.00,,---,0.08,VWS V14.01,2013-03-20 01:00:00,
2013-03-19 20:30:00,30.4,20.1,30.26,NW,315,1.0,4.0,65,0.00,,---,0.08,VWS V14.01,2013-03-20 01:30:00,
2013-03-19 21:00:00,29.7,20.8,30.27,NW,315,1.0,6.0,69,0.00,,---,0.08,VWS V14.01,2013-03-20 02:00:00,
2013-03-19 21:30:00,29.3,21.1,30.28,NW,315,3.0,11.0,71,0.00,,---,0.08,VWS V14.01,2013-03-20 02:30:00,
2013-03-19 22:00:00,28.5,20.3,30.29,WNW,292,2.0,6.0,71,0.00,,---,0.08,VWS V14.01,2013-03-20 03:00:00,
2013-03-19 22:30:00,28.1,19.9,30.29,WNW,292,2.0,7.0,71,0.00,,---,0.08,VWS V14.01,2013-03-20 03:30:00,
2013-03-19 23:00:00,27.2,21.0,30.30,NW,315,3.0,14.0,77,0.00,,---,0.08,VWS V14.01,2013-03-20 04:00:00,
2013-03-19 23:30:00,25.1,18.6,30.32,NW,315,5.0,17.0,76,0.00,,---,0.08,VWS V14.01,2013-03-20 04:30:00,